Time,TemperatureF,DewpointF,PressureIn,WindDirection,WindDirectionDegrees,WindSpeedMPH,WindSpeedGustMPH,Humidity,HourlyPrecipIn,Conditions,Clouds,dailyrainin,SoftwareType,DateUTC
2013-03-24 00:04:00,51.6,45.0,28.70,SSE,158,2.2,2.2,78,0.00,,---,0.00,VWS V14.00,2013-03-24 04:04:00,
2013-03-24 00:10:00,51.6,45.0,28.73,SE,135,2.7,2.7,78,0.00,,---,0.00,VWS V14.00,2013-03-24 04:10:00,
2013-03-24 00:19:00,51.4,44.8,28.73,ENE,68,1.1,2.7,78,0.00,,---,0.00,VWS V14.00,2013-03-24 04:19:00,
2013-03-24 00:25:00,51.4,44.8,28.70,WNW,292,1.6,2.7,78,0.00,,---,0.00,VWS V14.00,2013-03-24 04:25:00,
2013-03-24 00:31:00,51.4,44.8,28.70,SE,135,1.3,2.7,78,0.00,,---,0.00,VWS V14.00,2013-03-24 04:31:00,
2013-03-24 00:37:00,51.3,44.6,28.70,South,180,0.0,3.4,78,0.00,,---,0.00,VWS V14.00,2013-03-24 04:37:00,
2013-03-24 00:43:00,51.3,44.6,28.73,ENE,68,0.0,4.0,78,0.00,,---,0.00,VWS V14.00,2013-03-24 04:43:00,
2013-03-24 00:49:00,51.1,44.5,28.73,ESE,112,1.3,4.0,78,0.00,,---,0.00,VWS V14.00,2013-03-24 04:49:00,
2013-03-24 00:55:00,50.9,44.0,28.70,ENE,68,2.2,4.0,77,0.00,,---,0.00,VWS V14.00,2013-03-24 04:55:00,
2013-03-24 01:01:00,50.7,43.8,28.70,East,90,2.9,2.9,77,0.00,,---,0.00,VWS V14.00,2013-03-24 05:01:00,
2013-03-24 01:07:00,50.7,43.8,28.70,NE,45,1.1,2.9,77,0.00,,---,0.00,VWS V14.00,2013-03-24 05:07:00,
2013-03-24 01:13:00,50.5,43.6,28.70,ENE,68,2.5,2.9,77,0.00,,---,0.00,VWS V14.00,2013-03-24 05:13:00,
2013-03-24 01:19:00,50.5,43.6,28.70,ENE,68,2.0,2.9,77,0.00,,---,0.00,VWS V14.00,2013-03-24 05:19:00,
2013-03-24 01:25:00,50.5,44.0,28.73,NNE,22,0.9,2.9,78,0.00,,---,0.00,VWS V14.00,2013-03-24 05:25:00,
2013-03-24 01:31:00,50.5,44.0,28.73,NNE,22,0.0,2.9,78,0.00,,---,0.00,VWS V14.00,2013-03-24 05:31:00,
2013-03-24 01:37:00,50.4,43.8,28.73,NE,45,1.6,2.9,78,0.00,,---,0.00,VWS V14.00,2013-03-24 05:37:00,
2013-03-24 01:43:00,50.4,44.1,28.73,NE,45,0.0,2.9,79,0.00,,---,0.00,VWS V14.00,2013-03-24 05:43:00,
2013-03-24 01:50:00,50.4,44.1,28.73,NE,45,1.3,2.9,79,0.00,,---,0.00,VWS V14.00,2013-03-24 05:50:00,
2013-03-24 01:56:00,50.2,44.3,28.70,NE,45,1.1,2.9,80,0.00,,---,0.00,VWS V14.00,2013-03-24 05:56:00,
2013-03-24 02:02:00,50.2,44.3,28.70,NE,45,1.3,2.2,80,0.00,,---,0.00,VWS V14.00,2013-03-24 06:02:00,
2013-03-24 02:08:00,50.2,44.3,28.67,NNE,22,1.1,2.5,80,0.04,,---,0.04,VWS V14.00,2013-03-24 06:08:00,
2013-03-24 02:14:00,50.2,44.3,28.67,NE,45,1.6,2.5,80,0.04,,---,0.04,VWS V14.00,2013-03-24 06:14:00,
2013-03-24 02:20:00,50.0,44.4,28.67,NE,45,0.0,2.5,81,0.04,,---,0.04,VWS V14.00,2013-03-24 06:20:00,
2013-03-24 02:26:00,50.0,44.4,28.67,NNE,22,2.0,2.7,81,0.08,,---,0.08,VWS V14.00,2013-03-24 06:26:00,
2013-03-24 02:32:00,49.8,44.2,28.67,NE,45,1.6,2.7,81,0.08,,---,0.08,VWS V14.00,2013-03-24 06:32:00,
2013-03-24 02:38:00,49.8,44.5,28.67,NE,45,1.1,2.7,82,0.08,,---,0.08,VWS V14.00,2013-03-24 06:38:00,
2013-03-24 02:44:00,49.8,44.5,28.67,ENE,68,2.5,2.7,82,0.12,,---,0.12,VWS V14.00,2013-03-24 06:44:00,
2013-03-24 02:50:00,49.6,44.4,28.67,NE,45,2.0,2.7,82,0.12,,---,0.12,VWS V14.00,2013-03-24 06:50:00,
2013-03-24 02:56:00,49.6,44.4,28.67,ENE,68,1.3,3.8,82,0.12,,---,0.12,VWS V14.00,2013-03-24 06:56:00,
2013-03-24 03:02:00,49.5,44.2,28.67,NE,45,2.2,2.2,82,0.16,,---,0.16,VWS V14.00,2013-03-24 07:02:00,
2013-03-24 03:08:00,49.5,44.2,28.64,North,0,1.1,2.7,82,0.16,,---,0.16,VWS V14.00,2013-03-24 07:08:00,
2013-03-24 03:14:00,49.5,44.2,28.64,NE,45,1.6,2.7,82,0.16,,---,0.16,VWS V14.00,2013-03-24 07:14:00,
2013-03-24 03:20:00,49.5,44.2,28.64,ENE,68,0.0,2.7,82,0.21,,---,0.21,VWS V14.00,2013-03-24 07:20:00,
2013-03-24 03:29:00,49.5,44.2,28.64,NE,45,0.0,2.7,82,0.21,,---,0.21,VWS V14.00,2013-03-24 07:29:00,
2013-03-24 03:35:00,49.5,44.5,28.64,North,0,0.0,2.7,83,0.25,,---,0.25,VWS V14.00,2013-03-24 07:35:00,
2013-03-24 03:41:00,49.5,44.5,28.64,NNW,338,0.0,2.7,83,0.29,,---,0.29,VWS V14.00,2013-03-24 07:41:00,
2013-03-24 03:47:00,49.5,44.5,28.64,NE,45,0.0,2.7,83,0.29,,---,0.29,VWS V14.00,2013-03-24 07:47:00,
2013-03-24 03:53:00,49.3,44.3,28.61,NE,45,0.0,2.7,83,0.33,,---,0.33,VWS V14.00,2013-03-24 07:53:00,
2013-03-24 04:00:00,49.3,44.3,28.61,NE,45,0.0,2.7,83,0.33,,---,0.33,VWS V14.00,2013-03-24 08:00:00,
2013-03-24 04:06:00,49.3,44.3,28.61,NE,45,0.0,0.0,83,0.21,,---,0.37,VWS V14.00,2013-03-24 08:06:00,
2013-03-24 04:12:00,49.3,44.3,28.61,NE,45,0.0,0.0,83,0.21,,---,0.37,VWS V14.00,2013-03-24 08:12:00,
2013-03-24 04:18:00,49.3,44.3,28.61,NE,45,0.0,0.0,83,0.21,,---,0.37,VWS V14.00,2013-03-24 08:18:00,
2013-03-24 04:24:00,49.3,44.3,28.61,ENE,68,1.1,2.0,83,0.25,,---,0.41,VWS V14.00,2013-03-24 08:24:00,
2013-03-24 04:30:00,49.3,44.3,28.61,ENE,68,2.5,2.5,83,0.25,,---,0.41,VWS V14.00,2013-03-24 08:30:00,
2013-03-24 04:36:00,49.3,44.3,28.61,ENE,68,2.2,2.5,83,0.25,,---,0.41,VWS V14.00,2013-03-24 08:36:00,
2013-03-24 04:42:00,49.1,44.2,28.61,ENE,68,2.0,2.7,83,0.25,,---,0.41,VWS V14.00,2013-03-24 08:42:00,
2013-03-24 04:48:00,48.9,44.0,28.61,ENE,68,2.0,3.1,83,0.30,,---,0.46,VWS V14.00,2013-03-24 08:48:00,
2013-03-24 04:54:00,48.9,44.0,28.55,NNE,22,2.0,3.1,83,0.30,,---,0.46,VWS V14.00,2013-03-24 08:54:00,
2013-03-24 05:00:00,48.9,44.0,28.55,NE,45,2.2,3.1,83,0.30,,---,0.46,VWS V14.00,2013-03-24 09:00:00,
2013-03-24 05:06:00,48.9,44.0,28.55,NE,45,1.3,3.8,83,0.13,,---,0.46,VWS V14.00,2013-03-24 09:06:00,
2013-03-24 05:12:00,48.9,44.0,28.52,East,90,2.5,3.8,83,0.17,,---,0.50,VWS V14.00,2013-03-24 09:12:00,
2013-03-24 05:18:00,48.7,43.8,28.52,NE,45,1.6,3.8,83,0.17,,---,0.50,VWS V14.00,2013-03-24 09:18:00,
2013-03-24 05:24:00,48.7,43.8,28.52,WNW,292,1.3,3.8,83,0.17,,---,0.50,VWS V14.00,2013-03-24 09:24:00,
2013-03-24 05:30:00,48.7,43.8,28.52,East,90,1.3,3.8,83,0.17,,---,0.50,VWS V14.00,2013-03-24 09:30:00,
2013-03-24 05:36:00,48.7,44.1,28.52,NE,45,1.1,3.8,84,0.17,,---,0.50,VWS V14.00,2013-03-24 09:36:00,
2013-03-24 05:42:00,48.7,44.1,28.52,East,90,2.5,3.8,84,0.17,,---,0.50,VWS V14.00,2013-03-24 09:42:00,
2013-03-24 05:48:00,48.7,44.1,28.52,NNE,22,1.6,4.3,84,0.21,,---,0.54,VWS V14.00,2013-03-24 09:48:00,
2013-03-24 05:54:00,48.7,44.1,28.50,NE,45,1.3,4.3,84,0.25,,---,0.58,VWS V14.00,2013-03-24 09:54:00,
2013-03-24 06:00:00,48.7,44.1,28.50,ENE,68,1.6,4.3,84,0.25,,---,0.58,VWS V14.00,2013-03-24 10:00:00,
2013-03-24 06:06:00,48.7,44.1,28.50,East,90,3.4,3.4,84,0.12,,---,0.58,VWS V14.00,2013-03-24 10:06:00,
2013-03-24 06:12:00,48.6,44.0,28.50,NE,45,3.8,4.9,84,0.12,,---,0.58,VWS V14.00,2013-03-24 10:12:00,
2013-03-24 06:18:00,48.6,44.0,28.50,North,0,2.7,4.9,84,0.12,,---,0.58,VWS V14.00,2013-03-24 10:18:00,
2013-03-24 06:24:00,48.6,44.0,28.50,ENE,68,5.4,5.4,84,0.12,,---,0.58,VWS V14.00,2013-03-24 10:24:00,
2013-03-24 06:30:00,48.6,44.0,28.50,ENE,68,2.9,5.4,84,0.12,,---,0.58,VWS V14.00,2013-03-24 10:30:00,
2013-03-24 06:37:00,48.4,43.8,28.50,North,0,2.5,5.4,84,0.16,,---,0.62,VWS V14.00,2013-03-24 10:37:00,
2013-03-24 06:43:00,48.6,44.0,28.47,WNW,292,0.0,5.4,84,0.16,,---,0.62,VWS V14.00,2013-03-24 10:43:00,
2013-03-24 06:49:00,48.6,44.3,28.47,NNW,338,1.1,5.4,85,0.16,,---,0.62,VWS V14.00,2013-03-24 10:49:00,
2013-03-24 06:55:00,48.6,44.3,28.50,East,90,6.3,6.3,85,0.24,,---,0.70,VWS V14.00,2013-03-24 10:55:00,
2013-03-24 07:04:00,48.4,44.1,28.50,West,270,1.3,2.5,85,0.25,,---,0.83,VWS V14.00,2013-03-24 11:04:00,
2013-03-24 07:10:00,48.4,44.1,28.52,West,270,2.7,4.0,85,0.33,,---,0.91,VWS V14.00,2013-03-24 11:10:00,
2013-03-24 07:16:00,48.6,44.3,28.52,East,90,3.4,4.0,85,0.41,,---,0.99,VWS V14.00,2013-03-24 11:16:00,
2013-03-24 07:22:00,48.4,44.1,28.52,ESE,112,2.9,4.0,85,0.50,,---,1.08,VWS V14.00,2013-03-24 11:22:00,
2013-03-24 07:28:00,48.4,44.1,28.58,ESE,112,4.9,4.9,85,0.50,,---,1.08,VWS V14.00,2013-03-24 11:28:00,
2013-03-24 07:34:00,48.4,44.1,28.58,NW,315,2.5,4.9,85,0.58,,---,1.16,VWS V14.00,2013-03-24 11:34:00,
2013-03-24 07:40:00,48.4,44.1,28.58,West,270,2.5,4.9,85,0.62,,---,1.20,VWS V14.00,2013-03-24 11:40:00,
2013-03-24 07:46:00,48.4,44.1,28.58,ENE,68,2.0,4.9,85,0.62,,---,1.20,VWS V14.00,2013-03-24 11:46:00,
2013-03-24 07:52:00,48.2,44.2,28.52,ENE,68,2.7,5.8,86,0.62,,---,1.20,VWS V14.00,2013-03-24 11:52:00,
2013-03-24 07:58:00,48.2,43.9,28.52,East,90,4.9,5.8,85,0.62,,---,1.20,VWS V14.00,2013-03-24 11:58:00,
2013-03-24 08:04:00,48.2,43.9,28.52,East,90,3.6,4.0,85,0.41,,---,1.20,VWS V14.00,2013-03-24 12:04:00,
2013-03-24 08:10:00,48.2,43.9,28.55,East,90,2.9,4.0,85,0.41,,---,1.20,VWS V14.00,2013-03-24 12:10:00,
2013-03-24 08:16:00,48.2,44.2,28.55,ENE,68,1.6,4.0,86,0.41,,---,1.20,VWS V14.00,2013-03-24 12:16:00,
2013-03-24 08:22:00,48.2,44.2,28.50,ENE,68,3.1,4.0,86,0.41,,---,1.20,VWS V14.00,2013-03-24 12:22:00,
2013-03-24 08:28:00,48.2,44.2,28.50,East,90,2.9,4.0,86,0.41,,---,1.20,VWS V14.00,2013-03-24 12:28:00,
2013-03-24 08:34:00,48.4,44.4,28.50,ENE,68,1.6,4.0,86,0.41,,---,1.20,VWS V14.00,2013-03-24 12:34:00,
2013-03-24 08:40:00,48.4,44.4,28.52,East,90,1.6,4.0,86,0.41,,---,1.20,VWS V14.00,2013-03-24 12:40:00,
2013-03-24 08:46:00,48.6,44.9,28.52,NE,45,1.1,4.3,87,0.41,,---,1.20,VWS V14.00,2013-03-24 12:46:00,
2013-03-24 08:52:00,48.7,44.8,28.52,ENE,68,3.4,4.3,86,0.41,,---,1.20,VWS V14.00,2013-03-24 12:52:00,
2013-03-24 08:58:00,48.7,44.8,28.52,NNE,22,1.6,4.3,86,0.41,,---,1.20,VWS V14.00,2013-03-24 12:58:00,
2013-03-24 09:05:00,48.9,44.9,28.52,NE,45,2.0,2.7,86,0.00,,---,1.20,VWS V14.00,2013-03-24 13:05:00,
2013-03-24 09:11:00,49.1,45.1,28.52,ENE,68,2.5,3.8,86,0.00,,---,1.20,VWS V14.00,2013-03-24 13:11:00,
2013-03-24 09:17:00,49.3,45.0,28.52,ENE,68,1.6,3.8,85,0.00,,---,1.20,VWS V14.00,2013-03-24 13:17:00,
2013-03-24 09:23:00,49.1,44.8,28.52,East,90,2.7,4.0,85,0.00,,---,1.20,VWS V14.00,2013-03-24 13:23:00,
2013-03-24 09:29:00,49.1,44.8,28.50,NNE,22,0.0,4.0,85,0.00,,---,1.20,VWS V14.00,2013-03-24 13:29:00,
2013-03-24 09:35:00,49.1,44.8,28.50,NE,45,0.0,4.0,85,0.00,,---,1.20,VWS V14.00,2013-03-24 13:35:00,
2013-03-24 09:41:00,49.1,44.8,28.50,ENE,68,1.3,4.0,85,0.00,,---,1.20,VWS V14.00,2013-03-24 13:41:00,
2013-03-24 09:47:00,49.1,44.5,28.50,ENE,68,0.0,4.0,84,0.00,,---,1.20,VWS V14.00,2013-03-24 13:47:00,
2013-03-24 09:53:00,49.1,44.5,28.50,NE,45,0.0,4.0,84,0.00,,---,1.20,VWS V14.00,2013-03-24 13:53:00,
2013-03-24 09:59:00,49.3,44.7,28.52,NE,45,2.2,4.0,84,0.00,,---,1.20,VWS V14.00,2013-03-24 13:59:00,
2013-03-24 10:05:00,49.3,44.7,28.52,ENE,68,1.1,2.0,84,0.00,,---,1.20,VWS V14.00,2013-03-24 14:05:00,
2013-03-24 10:11:00,49.3,44.7,28.50,ESE,112,0.9,2.2,84,0.04,,---,1.24,VWS V14.00,2013-03-24 14:11:00,
2013-03-24 10:17:00,49.3,45.0,28.50,NE,45,0.0,2.2,85,0.04,,---,1.24,VWS V14.00,2013-03-24 14:17:00,
2013-03-24 10:23:00,49.3,45.0,28.50,ENE,68,2.9,3.4,85,0.04,,---,1.24,VWS V14.00,2013-03-24 14:23:00,
2013-03-24 10:29:00,49.3,45.0,28.50,ENE,68,2.0,3.4,85,0.04,,---,1.24,VWS V14.00,2013-03-24 14:29:00,
2013-03-24 10:35:00,49.3,45.0,28.50,ENE,68,3.4,3.6,85,0.04,,---,1.24,VWS V14.00,2013-03-24 14:35:00,
2013-03-24 10:41:00,49.1,44.8,28.50,ENE,68,2.9,4.7,85,0.04,,---,1.24,VWS V14.00,2013-03-24 14:41:00,
2013-03-24 10:47:00,49.1,44.8,28.50,East,90,3.1,4.7,85,0.09,,---,1.29,VWS V14.00,2013-03-24 14:47:00,
2013-03-24 10:53:00,49.1,44.8,28.50,ENE,68,2.9,4.7,85,0.09,,---,1.29,VWS V14.00,2013-03-24 14:53:00,
2013-03-24 10:59:00,49.1,44.5,28.50,East,90,1.6,4.7,84,0.09,,---,1.29,VWS V14.00,2013-03-24 14:59:00,
2013-03-24 11:05:00,48.9,44.6,28.50,ENE,68,2.5,2.5,85,0.09,,---,1.29,VWS V14.00,2013-03-24 15:05:00,
2013-03-24 11:11:00,48.9,44.6,28.50,NE,45,1.6,2.5,85,0.09,,---,1.29,VWS V14.00,2013-03-24 15:11:00,
2013-03-24 11:17:00,48.9,44.6,28.50,East,90,2.0,3.1,85,0.09,,---,1.29,VWS V14.00,2013-03-24 15:17:00,
2013-03-24 11:24:00,48.9,44.3,28.50,East,90,1.6,3.1,84,0.09,,---,1.29,VWS V14.00,2013-03-24 15:24:00,
2013-03-24 11:30:00,48.7,44.1,28.50,ESE,112,1.3,3.1,84,0.09,,---,1.29,VWS V14.00,2013-03-24 15:30:00,
2013-03-24 11:36:00,48.7,44.4,28.50,East,90,1.3,3.1,85,0.09,,---,1.29,VWS V14.00,2013-03-24 15:36:00,
2013-03-24 11:42:00,48.7,44.4,28.50,ENE,68,2.0,3.1,85,0.09,,---,1.29,VWS V14.00,2013-03-24 15:42:00,
2013-03-24 11:48:00,48.7,44.1,28.50,ENE,68,0.9,3.1,84,0.09,,---,1.29,VWS V14.00,2013-03-24 15:48:00,
2013-03-24 11:54:00,48.7,44.1,28.50,North,0,1.3,3.6,84,0.09,,---,1.29,VWS V14.00,2013-03-24 15:54:00,
2013-03-24 12:00:00,48.7,44.4,28.50,East,90,2.9,3.6,85,0.09,,---,1.29,VWS V14.00,2013-03-24 16:00:00,
2013-03-24 12:06:00,48.7,44.1,28.50,East,90,2.7,4.0,84,0.00,,---,1.29,VWS V14.00,2013-03-24 16:06:00,
2013-03-24 12:12:00,48.7,44.4,28.50,ENE,68,0.0,4.0,85,0.00,,---,1.29,VWS V14.00,2013-03-24 16:12:00,
2013-03-24 12:18:00,48.7,44.4,28.50,East,90,1.1,4.0,85,0.00,,---,1.29,VWS V14.00,2013-03-24 16:18:00,
2013-03-24 12:24:00,48.7,44.4,28.50,ENE,68,2.0,4.0,85,0.00,,---,1.29,VWS V14.00,2013-03-24 16:24:00,
2013-03-24 12:30:00,48.7,44.4,28.50,NE,45,0.0,4.0,85,0.00,,---,1.29,VWS V14.00,2013-03-24 16:30:00,
2013-03-24 12:39:00,48.9,44.6,28.50,ENE,68,0.0,4.0,85,0.00,,---,1.29,VWS V14.00,2013-03-24 16:39:00,
2013-03-24 12:45:00,48.9,44.6,28.50,East,90,1.3,4.0,85,0.00,,---,1.29,VWS V14.00,2013-03-24 16:45:00,
2013-03-24 12:51:00,48.9,44.6,28.50,East,90,2.7,4.0,85,0.00,,---,1.29,VWS V14.00,2013-03-24 16:51:00,
2013-03-24 12:57:00,48.9,44.6,28.50,ESE,112,1.6,4.0,85,0.00,,---,1.29,VWS V14.00,2013-03-24 16:57:00,
2013-03-24 13:03:00,48.9,44.6,28.50,ENE,68,0.0,0.0,85,0.00,,---,1.29,VWS V14.00,2013-03-24 17:03:00,
2013-03-24 13:09:00,48.9,44.6,28.50,ENE,68,1.6,1.6,85,0.00,,---,1.29,VWS V14.00,2013-03-24 17:09:00,
2013-03-24 13:15:00,48.9,44.6,28.50,ENE,68,1.6,3.4,85,0.00,,---,1.29,VWS V14.00,2013-03-24 17:15:00,
2013-03-24 13:21:00,48.9,44.6,28.50,ENE,68,0.0,3.4,85,0.00,,---,1.29,VWS V14.00,2013-03-24 17:21:00,
2013-03-24 13:27:00,49.1,44.8,28.50,ENE,68,1.3,3.4,85,0.00,,---,1.29,VWS V14.00,2013-03-24 17:27:00,
2013-03-24 13:33:00,49.1,44.8,28.50,ENE,68,1.1,3.4,85,0.00,,---,1.29,VWS V14.00,2013-03-24 17:33:00,
2013-03-24 13:39:00,49.1,44.8,28.47,ENE,68,1.1,3.4,85,0.00,,---,1.29,VWS V14.00,2013-03-24 17:39:00,
2013-03-24 13:45:00,49.1,44.8,28.47,East,90,2.5,3.4,85,0.00,,---,1.29,VWS V14.00,2013-03-24 17:45:00,
2013-03-24 13:55:00,49.3,45.3,28.47,NNE,22,0.0,3.4,86,0.00,,---,1.29,VWS V14.00,2013-03-24 17:55:00,
2013-03-24 14:00:00,49.3,45.3,28.47,ESE,112,2.5,3.4,86,0.00,,---,1.29,VWS V14.00,2013-03-24 18:00:00,
2013-03-24 14:07:00,49.3,45.3,28.47,NE,45,0.9,3.1,86,0.00,,---,1.29,VWS V14.00,2013-03-24 18:07:00,
2013-03-24 14:13:00,49.5,45.5,28.47,ENE,68,1.3,3.1,86,0.00,,---,1.29,VWS V14.00,2013-03-24 18:13:00,
2013-03-24 14:19:00,49.5,45.2,28.47,ESE,112,0.9,3.1,85,0.00,,---,1.29,VWS V14.00,2013-03-24 18:19:00,
2013-03-24 14:25:00,49.5,45.2,28.47,East,90,1.3,3.1,85,0.00,,---,1.29,VWS V14.00,2013-03-24 18:25:00,
2013-03-24 14:31:00,49.6,45.3,28.47,SE,135,2.7,3.1,85,0.00,,---,1.29,VWS V14.00,2013-03-24 18:31:00,
2013-03-24 14:40:00,49.6,45.3,28.44,ESE,112,0.9,3.6,85,0.00,,---,1.29,VWS V14.00,2013-03-24 18:40:00,
2013-03-24 14:49:00,49.8,45.5,28.44,ENE,68,0.0,4.0,85,0.00,,---,1.29,VWS V14.00,2013-03-24 18:49:00,
2013-03-24 14:55:00,50.0,45.4,28.44,ENE,68,2.0,4.3,84,0.00,,---,1.29,VWS V14.00,2013-03-24 18:55:00,
2013-03-24 15:01:00,50.2,45.2,28.44,SSE,158,3.4,5.4,83,0.00,,---,1.29,VWS V14.00,2013-03-24 19:01:00,
2013-03-24 15:07:00,50.2,45.2,28.44,NE,45,0.9,5.4,83,0.00,,---,1.29,VWS V14.00,2013-03-24 19:07:00,
2013-03-24 15:13:00,50.5,45.3,28.44,NE,45,2.2,5.4,82,0.00,,---,1.29,VWS V14.00,2013-03-24 19:13:00,
2013-03-24 15:20:00,50.7,45.4,28.44,SE,135,1.6,6.0,82,0.00,,---,1.29,VWS V14.00,2013-03-24 19:20:00,
2013-03-24 15:26:00,50.7,45.1,28.44,ENE,68,2.5,6.0,81,0.00,,---,1.29,VWS V14.00,2013-03-24 19:26:00,
2013-03-24 15:32:00,50.9,45.3,28.44,ENE,68,3.4,6.0,81,0.00,,---,1.29,VWS V14.00,2013-03-24 19:32:00,
2013-03-24 15:38:00,51.1,45.5,28.44,ENE,68,3.1,6.0,81,0.00,,---,1.29,VWS V14.00,2013-03-24 19:38:00,
2013-03-24 15:44:00,51.1,45.1,28.41,East,90,2.2,6.0,80,0.00,,---,1.29,VWS V14.00,2013-03-24 19:44:00,
2013-03-24 15:50:00,51.1,45.1,28.41,East,90,2.5,6.0,80,0.00,,---,1.29,VWS V14.00,2013-03-24 19:50:00,
2013-03-24 15:59:00,51.1,44.5,28.41,ESE,112,4.9,6.0,78,0.00,,---,1.29,VWS V14.00,2013-03-24 19:59:00,
2013-03-24 16:05:00,51.1,44.5,28.41,SE,135,3.8,3.8,78,0.00,,---,1.29,VWS V14.00,2013-03-24 20:05:00,
2013-03-24 16:11:00,50.9,44.0,28.41,East,90,2.9,3.8,77,0.00,,---,1.29,VWS V14.00,2013-03-24 20:11:00,
2013-03-24 16:17:00,50.9,44.0,28.41,East,90,4.3,6.3,77,0.00,,---,1.29,VWS V14.00,2013-03-24 20:17:00,
2013-03-24 16:23:00,50.9,44.0,28.41,East,90,1.1,6.3,77,0.00,,---,1.29,VWS V14.00,2013-03-24 20:23:00,
2013-03-24 16:29:00,50.7,43.4,28.44,East,90,1.1,6.3,76,0.00,,---,1.29,VWS V14.00,2013-03-24 20:29:00,
2013-03-24 16:35:00,50.7,43.4,28.44,SSE,158,2.5,6.3,76,0.00,,---,1.29,VWS V14.00,2013-03-24 20:35:00,
2013-03-24 16:41:00,50.7,43.4,28.44,SSE,158,2.5,6.3,76,0.00,,---,1.29,VWS V14.00,2013-03-24 20:41:00,
2013-03-24 16:47:00,50.7,43.4,28.44,ESE,112,2.9,6.3,76,0.00,,---,1.29,VWS V14.00,2013-03-24 20:47:00,
2013-03-24 16:53:00,50.7,43.4,28.41,ESE,112,1.1,6.3,76,0.00,,---,1.29,VWS V14.00,2013-03-24 20:53:00,
2013-03-24 17:00:00,50.5,43.3,28.41,East,90,4.3,6.3,76,0.00,,---,1.29,VWS V14.00,2013-03-24 21:00:00,
2013-03-24 17:06:00,50.5,43.3,28.41,ENE,68,1.3,4.3,76,0.00,,---,1.29,VWS V14.00,2013-03-24 21:06:00,
2013-03-24 17:12:00,50.5,43.3,28.41,East,90,0.9,4.3,76,0.00,,---,1.29,VWS V14.00,2013-03-24 21:12:00,
2013-03-24 17:18:00,50.4,43.1,28.41,SE,135,2.0,4.3,76,0.00,,---,1.29,VWS V14.00,2013-03-24 21:18:00,
2013-03-24 17:24:00,50.5,43.6,28.44,NNW,338,1.3,4.3,77,0.00,,---,1.29,VWS V14.00,2013-03-24 21:24:00,
2013-03-24 17:30:00,50.4,43.1,28.44,ESE,112,2.0,4.3,76,0.00,,---,1.29,VWS V14.00,2013-03-24 21:30:00,
2013-03-24 17:36:00,50.2,42.9,28.44,SW,225,2.9,4.3,76,0.00,,---,1.29,VWS V14.00,2013-03-24 21:36:00,
2013-03-24 17:42:00,50.0,42.7,28.44,ESE,112,2.5,4.5,76,0.00,,---,1.29,VWS V14.00,2013-03-24 21:42:00,
2013-03-24 17:48:00,50.0,42.7,28.44,SSE,158,3.1,6.0,76,0.00,,---,1.29,VWS V14.00,2013-03-24 21:48:00,
2013-03-24 17:54:00,49.8,42.9,28.41,SSE,158,4.9,6.0,77,0.00,,---,1.29,VWS V14.00,2013-03-24 21:54:00,
2013-03-24 18:00:00,49.6,42.7,28.41,ENE,68,2.9,6.0,77,0.00,,---,1.29,VWS V14.00,2013-03-24 22:00:00,
2013-03-24 18:06:00,49.6,42.7,28.41,SSE,158,3.1,5.4,77,0.00,,---,1.29,VWS V14.00,2013-03-24 22:06:00,
2013-03-24 18:12:00,49.6,42.7,28.41,South,180,1.3,5.4,77,0.00,,---,1.29,VWS V14.00,2013-03-24 22:12:00,
2013-03-24 18:18:00,49.5,42.6,28.41,WSW,248,2.2,5.4,77,0.00,,---,1.29,VWS V14.00,2013-03-24 22:18:00,
2013-03-24 18:24:00,49.3,42.4,28.41,SSE,158,4.7,5.4,77,0.00,,---,1.29,VWS V14.00,2013-03-24 22:24:00,
2013-03-24 18:30:00,49.3,42.4,28.41,ESE,112,2.5,5.4,77,0.00,,---,1.29,VWS V14.00,2013-03-24 22:30:00,
2013-03-24 18:36:00,49.1,42.2,28.41,NE,45,1.1,5.4,77,0.00,,---,1.29,VWS V14.00,2013-03-24 22:36:00,
2013-03-24 18:42:00,49.1,42.2,28.41,ESE,112,3.6,5.4,77,0.00,,---,1.29,VWS V14.00,2013-03-24 22:42:00,
2013-03-24 18:48:00,49.1,42.5,28.41,ENE,68,0.9,5.4,78,0.00,,---,1.29,VWS V14.00,2013-03-24 22:48:00,
2013-03-24 18:54:00,48.9,42.4,28.44,East,90,1.6,5.4,78,0.00,,---,1.29,VWS V14.00,2013-03-24 22:54:00,
2013-03-24 19:00:00,48.9,42.4,28.44,WSW,248,0.0,5.4,78,0.00,,---,1.29,VWS V14.00,2013-03-24 23:00:00,
2013-03-24 19:06:00,48.9,42.4,28.44,WNW,292,0.0,2.2,78,0.00,,---,1.29,VWS V14.00,2013-03-24 23:06:00,
2013-03-24 19:12:00,48.7,42.2,28.44,WNW,292,1.1,3.8,78,0.00,,---,1.29,VWS V14.00,2013-03-24 23:12:00,
2013-03-24 19:18:00,48.7,42.2,28.44,East,90,0.0,3.8,78,0.00,,---,1.29,VWS V14.00,2013-03-24 23:18:00,
2013-03-24 19:24:00,48.6,42.0,28.44,South,180,0.0,3.8,78,0.00,,---,1.29,VWS V14.00,2013-03-24 23:24:00,
2013-03-24 19:30:00,48.6,42.0,28.44,ENE,68,2.5,3.8,78,0.00,,---,1.29,VWS V14.00,2013-03-24 23:30:00,
2013-03-24 19:36:00,48.7,42.2,28.44,South,180,1.3,4.0,78,0.00,,---,1.29,VWS V14.00,2013-03-24 23:36:00,
2013-03-24 19:42:00,48.6,42.0,28.44,ENE,68,0.0,4.0,78,0.00,,---,1.29,VWS V14.00,2013-03-24 23:42:00,
2013-03-24 19:48:00,48.6,42.0,28.44,ESE,112,0.9,4.0,78,0.00,,---,1.29,VWS V14.00,2013-03-24 23:48:00,
2013-03-24 19:54:00,48.6,42.3,28.44,East,90,0.9,4.0,79,0.00,,---,1.29,VWS V14.00,2013-03-24 23:54:00,
2013-03-24 20:00:00,48.6,42.3,28.44,North,0,0.0,4.0,79,0.00,,---,1.29,VWS V14.00,2013-03-25 00:00:00,
2013-03-24 20:06:00,48.6,42.3,28.44,SSE,158,2.0,3.4,79,0.00,,---,1.29,VWS V14.00,2013-03-25 00:06:00,
2013-03-24 20:12:00,48.6,42.3,28.44,NE,45,1.6,5.4,79,0.00,,---,1.29,VWS V14.00,2013-03-25 00:12:00,
2013-03-24 20:18:00,48.6,42.3,28.44,NNE,22,1.3,5.4,79,0.00,,---,1.29,VWS V14.00,2013-03-25 00:18:00,
2013-03-24 20:24:00,48.6,42.7,28.44,ENE,68,0.0,5.4,80,0.00,,---,1.29,VWS V14.00,2013-03-25 00:24:00,
2013-03-24 20:30:00,48.6,42.7,28.44,ENE,68,0.0,5.4,80,0.00,,---,1.29,VWS V14.00,2013-03-25 00:30:00,
2013-03-24 20:37:00,48.4,42.8,28.44,NE,45,0.0,5.4,81,0.00,,---,1.29,VWS V14.00,2013-03-25 00:37:00,
2013-03-24 20:43:00,48.4,42.8,28.41,NE,45,0.0,5.4,81,0.00,,---,1.29,VWS V14.00,2013-03-25 00:43:00,
2013-03-24 20:49:00,48.2,43.0,28.41,NNW,338,0.0,5.4,82,0.00,,---,1.29,VWS V14.00,2013-03-25 00:49:00,
2013-03-24 20:55:00,48.4,43.2,28.44,SSE,158,1.1,5.4,82,0.00,,---,1.29,VWS V14.00,2013-03-25 00:55:00,
2013-03-24 21:01:00,48.4,43.2,28.44,West,270,0.0,0.0,82,0.00,,---,1.29,VWS V14.00,2013-03-25 01:01:00,
2013-03-24 21:07:00,48.2,43.0,28.44,SSW,202,0.0,2.0,82,0.00,,---,1.29,VWS V14.00,2013-03-25 01:07:00,
2013-03-24 21:13:00,48.2,43.0,28.44,WNW,292,0.9,2.0,82,0.00,,---,1.29,VWS V14.00,2013-03-25 01:13:00,
2013-03-24 21:19:00,48.2,43.0,28.44,WNW,292,0.0,2.0,82,0.00,,---,1.29,VWS V14.00,2013-03-25 01:19:00,
2013-03-24 21:25:00,48.2,43.0,28.44,WSW,248,1.1,2.0,82,0.00,,---,1.29,VWS V14.00,2013-03-25 01:25:00,
2013-03-24 21:31:00,48.0,42.8,28.44,SSW,202,0.0,2.0,82,0.00,,---,1.29,VWS V14.00,2013-03-25 01:31:00,
2013-03-24 21:37:00,48.0,42.8,28.44,South,180,2.2,2.2,82,0.00,,---,1.29,VWS V14.00,2013-03-25 01:37:00,
2013-03-24 21:43:00,48.0,42.8,28.44,South,180,0.9,3.8,82,0.00,,---,1.29,VWS V14.00,2013-03-25 01:43:00,
2013-03-24 21:49:00,47.8,42.9,28.44,SSE,158,1.3,3.8,83,0.00,,---,1.29,VWS V14.00,2013-03-25 01:49:00,
2013-03-24 21:55:00,47.7,42.8,28.44,SSE,158,1.1,3.8,83,0.00,,---,1.29,VWS V14.00,2013-03-25 01:55:00,
2013-03-24 22:01:00,47.7,42.8,28.44,WSW,248,0.0,2.2,83,0.00,,---,1.29,VWS V14.00,2013-03-25 02:01:00,
2013-03-24 22:07:00,47.8,42.9,28.44,WSW,248,0.0,2.2,83,0.00,,---,1.29,VWS V14.00,2013-03-25 02:07:00,
2013-03-24 22:13:00,47.8,42.9,28.44,West,270,0.0,2.2,83,0.00,,---,1.29,VWS V14.00,2013-03-25 02:13:00,
2013-03-24 22:19:00,47.7,42.8,28.44,West,270,2.0,2.2,83,0.00,,---,1.29,VWS V14.00,2013-03-25 02:19:00,
2013-03-24 22:25:00,47.7,42.8,28.44,West,270,0.0,2.2,83,0.00,,---,1.29,VWS V14.00,2013-03-25 02:25:00,
2013-03-24 22:31:00,47.5,42.6,28.44,NW,315,0.0,2.2,83,0.00,,---,1.29,VWS V14.00,2013-03-25 02:31:00,
2013-03-24 22:38:00,47.5,42.6,28.44,SE,135,0.9,2.2,83,0.00,,---,1.29,VWS V14.00,2013-03-25 02:38:00,
2013-03-24 22:44:00,47.3,42.4,28.44,South,180,0.0,2.2,83,0.00,,---,1.29,VWS V14.00,2013-03-25 02:44:00,
2013-03-24 22:50:00,47.3,42.4,28.44,WNW,292,0.0,2.2,83,0.00,,---,1.29,VWS V14.00,2013-03-25 02:50:00,
2013-03-24 22:56:00,47.3,42.4,28.44,ENE,68,0.0,2.2,83,0.00,,---,1.29,VWS V14.00,2013-03-25 02:56:00,
2013-03-24 23:02:00,47.3,42.4,28.44,SE,135,1.1,2.7,83,0.00,,---,1.29,VWS V14.00,2013-03-25 03:02:00,
2013-03-24 23:08:00,47.3,42.7,28.44,South,180,0.0,2.7,84,0.00,,---,1.29,VWS V14.00,2013-03-25 03:08:00,
2013-03-24 23:14:00,47.3,42.7,28.41,SE,135,1.6,2.7,84,0.00,,---,1.29,VWS V14.00,2013-03-25 03:14:00,
2013-03-24 23:20:00,47.3,42.7,28.41,WSW,248,0.0,2.7,84,0.00,,---,1.29,VWS V14.00,2013-03-25 03:20:00,
2013-03-24 23:26:00,47.3,42.7,28.41,SE,135,6.0,6.0,84,0.00,,---,1.29,VWS V14.00,2013-03-25 03:26:00,
2013-03-24 23:32:00,47.3,42.7,28.41,SW,225,0.0,6.0,84,0.00,,---,1.29,VWS V14.00,2013-03-25 03:32:00,
2013-03-24 23:38:00,47.3,42.7,28.41,WSW,248,0.0,6.0,84,0.00,,---,1.29,VWS V14.00,2013-03-25 03:38:00,
2013-03-24 23:44:00,47.3,42.7,28.41,SSE,158,2.9,6.0,84,0.00,,---,1.29,VWS V14.00,2013-03-25 03:44:00,
2013-03-24 23:50:00,47.3,42.7,28.41,West,270,0.0,6.0,84,0.00,,---,1.29,VWS V14.00,2013-03-25 03:50:00,
2013-03-24 23:56:00,47.3,42.7,28.41,SW,225,0.0,6.0,84,0.00,,---,1.29,VWS V14.00,2013-03-25 03:56:00,